createdAt,value
2017-07-29T08:19:36.143Z,4.07
2017-07-29T08:22:40.111Z,4.97
2017-07-29T08:25:43.848Z,6.37
2017-07-29T08:28:50.773Z,6.82
2017-07-29T08:35:23.047Z,4.60
2017-07-29T08:38:28.088Z,5.87
2017-07-29T08:41:31.908Z,4.80
2017-07-29T08:44:34.549Z,4.50
2017-07-29T08:47:37.375Z,4.87
2017-07-29T08:50:40.009Z,4.30
2017-07-29T08:53:43.544Z,4.60
2017-07-29T08:56:46.217Z,6.60
2017-07-29T08:59:49.024Z,5.75
2017-07-29T09:02:51.493Z,6.80
2017-07-29T09:05:57.851Z,4.47
2017-07-29T09:09:00.522Z,7.28
2017-07-29T09:12:03.328Z,4.57
2017-07-29T09:15:05.969Z,3.75
2017-07-29T09:18:08.783Z,4.53
2017-07-29T09:21:11.359Z,4.90
2017-07-29T09:24:14.141Z,7.15
2017-07-29T09:27:16.809Z,5.53
2017-07-29T09:30:19.429Z,9.13
2017-07-29T09:36:40.306Z,4.60
2017-07-29T09:39:42.919Z,4.25
2017-07-29T09:42:45.676Z,5.70
2017-07-29T09:45:48.287Z,3.83
2017-07-29T09:48:51.161Z,3.60
2017-07-29T09:51:53.785Z,4.28
2017-07-29T09:54:56.627Z,4.15
2017-07-29T09:57:59.302Z,5.15
2017-07-29T10:01:02.081Z,4.78
2017-07-29T10:04:04.711Z,5.03
2017-07-29T10:07:07.542Z,4.22
2017-07-29T10:10:10.186Z,5.62
2017-07-29T10:13:13.016Z,5.82
2017-07-29T10:16:15.905Z,3.40
2017-07-29T10:19:18.549Z,3.47
2017-07-29T10:22:21.395Z,3.70
2017-07-29T10:25:24.045Z,3.75
2017-07-29T10:28:26.823Z,4.12
2017-07-29T10:31:30.163Z,5.40
2017-07-29T10:34:33.148Z,4.00
2017-07-29T10:37:36.032Z,4.80
2017-07-29T10:40:38.657Z,4.22
2017-07-29T10:43:43.216Z,4.10
2017-07-29T10:46:51.802Z,4.68
2017-07-29T10:49:55.424Z,2.87
2017-07-29T10:52:58.046Z,5.00
2017-07-29T10:56:00.880Z,5.00
2017-07-29T10:59:04.296Z,3.75
2017-07-29T11:02:07.083Z,5.35
2017-07-29T11:05:09.700Z,3.62
2017-07-29T11:08:12.332Z,3.95
2017-07-29T11:11:14.944Z,2.50
2017-07-29T11:14:17.672Z,3.62
2017-07-29T11:17:20.369Z,4.15
2017-07-29T11:20:22.754Z,5.30
2017-07-29T11:23:25.954Z,3.30
2017-07-29T11:26:29.696Z,4.37
2017-07-29T11:29:33.652Z,4.68
2017-07-29T11:32:37.333Z,5.05
2017-07-29T11:35:40.871Z,4.00
2017-07-29T11:38:44.614Z,4.12
2017-07-29T11:41:49.181Z,4.67
2017-07-29T11:44:52.789Z,5.05
2017-07-29T11:47:55.983Z,3.40
2017-07-29T11:50:59.075Z,4.30
2017-07-29T11:54:02.881Z,5.47
2017-07-29T11:57:06.382Z,4.55
2017-07-29T12:00:11.557Z,4.27
2017-07-29T12:03:14.814Z,4.13
2017-07-29T12:06:18.520Z,4.30
2017-07-29T12:09:22.790Z,4.67
2017-07-29T12:12:26.136Z,4.33
2017-07-29T12:15:29.534Z,4.60
2017-07-29T12:18:32.624Z,3.30
2017-07-29T12:21:36.225Z,3.47
2017-07-29T12:24:39.623Z,4.07
2017-07-29T12:27:43.225Z,4.80
2017-07-29T12:30:47.477Z,3.73
2017-07-29T12:33:50.942Z,3.90
2017-07-29T12:36:54.152Z,3.50
2017-07-29T12:39:57.434Z,4.03
2017-07-29T12:43:00.818Z,4.53
2017-07-29T12:46:04.329Z,5.50
2017-07-29T12:49:08.920Z,3.80
2017-07-29T12:52:13.614Z,3.77
2017-07-29T12:55:16.826Z,4.30
2017-07-29T12:58:20.739Z,5.83
2017-07-29T13:01:23.776Z,3.60
2017-07-29T13:04:27.071Z,4.70
2017-07-29T13:07:31.189Z,4.97
2017-07-29T13:10:34.826Z,3.90
2017-07-29T13:13:38.185Z,4.10
2017-07-29T13:16:41.830Z,4.00
2017-07-29T13:19:46.135Z,3.75
2017-07-29T13:22:50.718Z,4.57
2017-07-29T13:25:54.561Z,3.37
2017-07-29T13:28:57.692Z,4.13
2017-07-29T13:32:00.851Z,7.60
2017-07-29T13:35:04.318Z,3.53
2017-07-29T13:38:07.382Z,4.67
2017-07-29T13:41:10.713Z,3.20
2017-07-29T13:44:14.023Z,3.30
2017-07-29T13:47:17.096Z,4.43
2017-07-29T13:50:20.801Z,4.30
2017-07-29T13:53:24.290Z,3.33
2017-07-29T13:56:27.665Z,3.63
2017-07-29T13:59:30.981Z,3.90
2017-07-29T14:02:34.172Z,3.37
2017-07-29T14:05:37.277Z,3.40
2017-07-29T14:08:40.746Z,3.13
2017-07-29T14:11:43.868Z,4.33
2017-07-29T14:14:49.574Z,4.70
2017-07-29T14:17:53.533Z,2.77
2017-07-29T14:20:56.866Z,4.57
2017-07-29T14:24:00.434Z,2.90
2017-07-29T14:27:09.700Z,2.30
2017-07-29T14:30:13.472Z,3.00
2017-07-29T14:33:17.177Z,3.07
2017-07-29T14:36:20.412Z,3.77
2017-07-29T14:39:23.440Z,4.30
2017-07-29T14:42:26.962Z,3.10
2017-07-29T14:45:31.061Z,5.00
2017-07-29T14:48:35.225Z,3.27
2017-07-29T14:51:38.485Z,4.47
2017-07-29T14:54:41.911Z,2.97
2017-07-29T14:57:46.312Z,3.13
2017-07-29T15:00:49.153Z,2.50
2017-07-29T15:03:52.249Z,3.20
2017-07-29T15:06:56.599Z,2.90
2017-07-29T15:09:59.997Z,2.97
2017-07-29T15:13:04.827Z,2.43
2017-07-29T15:16:08.449Z,3.00
2017-07-29T15:19:11.930Z,2.37
2017-07-29T15:22:15.959Z,3.30
2017-07-29T15:25:18.964Z,3.00
2017-07-29T15:28:22.738Z,3.47
2017-07-29T15:31:25.923Z,4.53
2017-07-29T15:34:29.430Z,2.93
2017-07-29T15:37:32.881Z,4.00
2017-07-29T15:40:35.856Z,3.10
2017-07-29T15:43:39.728Z,3.93
2017-07-29T15:46:43.227Z,3.23
2017-07-29T15:49:46.522Z,3.00
2017-07-29T15:52:49.946Z,2.63
2017-07-29T15:55:53.117Z,3.03
2017-07-29T15:58:56.662Z,3.13
2017-07-29T16:01:59.857Z,3.77
2017-07-29T16:05:03.186Z,3.60
2017-07-29T16:08:06.702Z,3.30
2017-07-29T16:11:09.899Z,3.20
2017-07-29T16:14:13.836Z,3.10
2017-07-29T16:17:16.998Z,2.80
2017-07-29T16:20:21.869Z,2.47
2017-07-29T16:23:25.232Z,3.20
2017-07-29T16:26:28.525Z,2.73
2017-07-29T16:29:32.945Z,2.67
2017-07-29T16:32:36.140Z,3.73
2017-07-29T16:35:39.213Z,3.27
2017-07-29T16:38:42.929Z,4.13
2017-07-29T16:41:46.746Z,2.93
2017-07-29T16:44:50.036Z,2.70
2017-07-29T16:47:53.246Z,3.50
2017-07-29T16:50:56.648Z,3.27
2017-07-29T16:54:01.037Z,3.87
2017-07-29T16:57:04.337Z,3.67
2017-07-29T17:00:07.349Z,3.00
2017-07-29T17:03:10.812Z,3.80
2017-07-29T17:06:14.117Z,2.63
2017-07-29T17:09:17.330Z,2.67
2017-07-29T17:12:20.443Z,2.43
2017-07-29T17:15:23.961Z,2.70
2017-07-29T17:18:27.308Z,3.80
2017-07-29T17:21:31.933Z,3.43
2017-07-29T17:24:35.435Z,3.60
2017-07-29T17:27:38.746Z,3.37
2017-07-29T17:30:42.129Z,3.27
2017-07-29T17:33:45.540Z,4.67
2017-07-29T17:36:48.617Z,3.40
2017-07-29T17:39:52.237Z,3.73
2017-07-29T17:42:55.433Z,4.07
2017-07-29T17:45:58.910Z,4.13
2017-07-29T17:49:03.514Z,4.30
2017-07-29T17:52:06.799Z,3.57
2017-07-29T17:55:09.483Z,4.90
2017-07-29T17:58:13.120Z,3.10
2017-07-29T18:01:16.508Z,2.50
2017-07-29T18:04:19.328Z,3.07
2017-07-29T18:07:22.314Z,3.90
2017-07-29T18:10:25.893Z,3.63
2017-07-29T18:13:29.079Z,4.20
2017-07-29T18:16:32.710Z,3.10
2017-07-29T18:19:35.842Z,3.33
2017-07-29T18:22:38.523Z,3.70
2017-07-29T18:25:41.689Z,4.80
2017-07-29T18:28:44.349Z,3.07
2017-07-29T18:31:48.898Z,4.10
2017-07-29T18:34:51.746Z,2.70
2017-07-29T18:37:55.136Z,4.43
2017-07-29T18:40:58.431Z,4.30
2017-07-29T18:44:01.852Z,4.73
2017-07-29T18:47:05.347Z,5.13
2017-07-29T18:50:10.204Z,5.13
2017-07-29T18:53:14.892Z,3.65
2017-07-29T18:56:18.237Z,3.60
2017-07-29T18:59:22.981Z,4.20
2017-07-29T19:02:26.560Z,5.07
2017-07-29T19:05:30.343Z,4.00
2017-07-29T19:08:34.488Z,4.50
2017-07-29T19:11:38.347Z,4.10
2017-07-29T19:18:06.052Z,5.05
2017-07-29T19:24:38.354Z,4.57
2017-07-29T19:27:41.640Z,4.62
2017-07-29T19:30:45.632Z,4.22
2017-07-29T19:33:49.492Z,4.85
2017-07-29T19:36:55.222Z,8.07
2017-07-29T19:40:02.071Z,5.05
2017-07-29T19:43:15.711Z,5.85
2017-07-29T19:46:19.282Z,5.07
2017-07-29T19:49:27.771Z,7.20
2017-07-29T19:52:32.229Z,5.37
2017-07-29T19:59:01.245Z,5.25
2017-07-29T20:02:07.941Z,4.93
2017-07-29T20:05:13.444Z,7.95
2017-07-29T20:08:17.941Z,8.57
2017-07-29T20:11:30.231Z,7.22
2017-07-29T20:56:16.600Z,7.47
2017-07-29T20:59:19.896Z,10.02
2017-07-29T21:05:56.866Z,7.12
2017-07-29T21:09:01.223Z,7.97
2017-07-29T21:12:06.529Z,6.87
2017-07-29T21:18:40.871Z,6.50
2017-07-29T21:21:50.002Z,7.90
2017-07-29T21:24:53.052Z,6.40
2017-07-29T21:27:57.619Z,9.45
2017-07-29T21:31:01.396Z,9.98
2017-07-29T21:37:40.377Z,9.82
2017-07-29T21:40:47.560Z,7.35
2017-07-29T21:43:53.154Z,9.38
2017-07-29T21:50:19.667Z,6.10
2017-07-29T21:53:23.938Z,7.55
2017-07-29T21:56:27.633Z,6.60
2017-07-29T21:59:38.947Z,9.10
2017-07-29T22:02:42.006Z,7.68
2017-07-29T22:05:45.966Z,8.07
2017-07-29T22:08:49.414Z,7.90
2017-07-29T22:11:54.550Z,7.40
2017-07-29T22:15:01.880Z,6.43
2017-07-29T22:18:05.397Z,6.62
2017-07-29T22:21:08.731Z,5.87
2017-07-29T22:24:15.982Z,6.93
2017-07-29T22:27:19.577Z,7.20
2017-07-29T22:30:23.905Z,7.55
2017-07-29T22:33:27.714Z,8.32
2017-07-29T22:36:31.251Z,7.62
2017-07-29T22:39:35.019Z,8.13
2017-07-29T22:42:38.518Z,8.07
2017-07-29T22:45:41.661Z,6.72
2017-07-29T22:48:45.477Z,8.10
2017-07-29T22:51:50.660Z,6.55
2017-07-29T22:54:55.012Z,6.05
2017-07-29T22:57:58.497Z,7.87
2017-07-29T23:01:02.120Z,5.50
2017-07-29T23:04:06.091Z,7.30
2017-07-29T23:07:09.283Z,7.72
2017-07-29T23:10:14.216Z,6.82
2017-07-29T23:13:17.511Z,4.68
2017-07-29T23:16:22.958Z,5.93
2017-07-29T23:19:26.666Z,7.57
2017-07-29T23:22:30.619Z,5.40
2017-07-29T23:25:34.229Z,5.00
2017-07-29T23:28:38.697Z,6.70
2017-07-29T23:31:42.608Z,6.70
2017-07-29T23:34:45.928Z,4.90
2017-07-29T23:37:50.017Z,5.87
2017-07-29T23:40:53.392Z,5.65
2017-07-29T23:43:56.696Z,5.57
2017-07-29T23:47:00.542Z,5.32
2017-07-29T23:50:05.491Z,5.00
2017-07-29T23:53:11.716Z,5.57
2017-07-29T23:56:16.300Z,4.60
2017-07-29T23:59:20.057Z,6.47
